sensor_id;sensor_type;location;lat;lon;timestamp;P1;durP1;ratioP1;P2;durP2;ratioP2
23519;SDS011;11936;50.820;4.336;2023-05-14T00:01:35;59.30;;;40.53;;
23519;SDS011;11936;50.820;4.336;2023-05-14T00:04:01;65.60;;;43.10;;
23519;SDS011;11936;50.820;4.336;2023-05-14T00:06:27;66.28;;;44.85;;
23519;SDS011;11936;50.820;4.336;2023-05-14T00:08:52;65.15;;;42.42;;
23519;SDS011;11936;50.820;4.336;2023-05-14T00:11:18;70.80;;;44.90;;
23519;SDS011;11936;50.820;4.336;2023-05-14T00:13:44;70.45;;;43.75;;
23519;SDS011;11936;50.820;4.336;2023-05-14T00:16:10;66.13;;;43.10;;
23519;SDS011;11936;50.820;4.336;2023-05-14T00:18:36;64.35;;;41.58;;
23519;SDS011;11936;50.820;4.336;2023-05-14T00:21:02;65.88;;;45.72;;
23519;SDS011;11936;50.820;4.336;2023-05-14T00:23:27;70.28;;;45.28;;
23519;SDS011;11936;50.820;4.336;2023-05-14T00:25:53;65.60;;;43.83;;
23519;SDS011;11936;50.820;4.336;2023-05-14T00:28:19;67.65;;;45.88;;
23519;SDS011;11936;50.820;4.336;2023-05-14T00:30:44;65.70;;;45.30;;
23519;SDS011;11936;50.820;4.336;2023-05-14T00:33:10;71.88;;;46.65;;
23519;SDS011;11936;50.820;4.336;2023-05-14T00:35:36;70.03;;;46.45;;
23519;SDS011;11936;50.820;4.336;2023-05-14T00:38:02;70.70;;;45.10;;
23519;SDS011;11936;50.820;4.336;2023-05-14T00:40:28;72.38;;;46.40;;
23519;SDS011;11936;50.820;4.336;2023-05-14T00:42:54;81.88;;;46.75;;
23519;SDS011;11936;50.820;4.336;2023-05-14T00:45:20;69.03;;;43.42;;
23519;SDS011;11936;50.820;4.336;2023-05-14T00:47:47;75.10;;;47.03;;
23519;SDS011;11936;50.820;4.336;2023-05-14T00:50:13;75.28;;;45.92;;
23519;SDS011;11936;50.820;4.336;2023-05-14T00:52:40;64.78;;;45.10;;
23519;SDS011;11936;50.820;4.336;2023-05-14T00:55:06;72.15;;;43.63;;
23519;SDS011;11936;50.820;4.336;2023-05-14T00:57:33;71.57;;;45.80;;
23519;SDS011;11936;50.820;4.336;2023-05-14T01:00:00;75.13;;;46.90;;
23519;SDS011;11936;50.820;4.336;2023-05-14T01:02:26;76.20;;;45.40;;
23519;SDS011;11936;50.820;4.336;2023-05-14T01:04:51;70.60;;;47.35;;
23519;SDS011;11936;50.820;4.336;2023-05-14T01:10:40;75.80;;;46.90;;
23519;SDS011;11936;50.820;4.336;2023-05-14T01:16:03;80.30;;;47.88;;
23519;SDS011;11936;50.820;4.336;2023-05-14T01:18:30;79.43;;;46.67;;
23519;SDS011;11936;50.820;4.336;2023-05-14T01:20:57;82.82;;;47.35;;
23519;SDS011;11936;50.820;4.336;2023-05-14T01:23:22;72.97;;;47.92;;
23519;SDS011;11936;50.820;4.336;2023-05-14T01:25:48;81.82;;;47.80;;
23519;SDS011;11936;50.820;4.336;2023-05-14T01:28:17;79.93;;;48.75;;
23519;SDS011;11936;50.820;4.336;2023-05-14T01:30:49;70.47;;;46.30;;
23519;SDS011;11936;50.820;4.336;2023-05-14T01:33:27;78.65;;;47.97;;
23519;SDS011;11936;50.820;4.336;2023-05-14T01:35:54;70.45;;;46.17;;
23519;SDS011;11936;50.820;4.336;2023-05-14T01:38:20;74.05;;;48.30;;
23519;SDS011;11936;50.820;4.336;2023-05-14T01:40:47;69.32;;;46.80;;
23519;SDS011;11936;50.820;4.336;2023-05-14T01:43:14;72.18;;;46.60;;
23519;SDS011;11936;50.820;4.336;2023-05-14T01:45:40;73.20;;;47.88;;
23519;SDS011;11936;50.820;4.336;2023-05-14T01:48:06;73.75;;;49.38;;
23519;SDS011;11936;50.820;4.336;2023-05-14T01:50:32;76.78;;;46.97;;
23519;SDS011;11936;50.820;4.336;2023-05-14T01:52:58;74.40;;;47.80;;
23519;SDS011;11936;50.820;4.336;2023-05-14T01:55:23;78.43;;;49.55;;
23519;SDS011;11936;50.820;4.336;2023-05-14T01:57:50;78.72;;;48.10;;
23519;SDS011;11936;50.820;4.336;2023-05-14T02:00:16;76.80;;;48.88;;
23519;SDS011;11936;50.820;4.336;2023-05-14T02:02:42;77.05;;;47.60;;
23519;SDS011;11936;50.820;4.336;2023-05-14T02:05:09;74.28;;;47.95;;
23519;SDS011;11936;50.820;4.336;2023-05-14T02:07:35;70.57;;;46.30;;
23519;SDS011;11936;50.820;4.336;2023-05-14T02:10:00;75.63;;;48.17;;
23519;SDS011;11936;50.820;4.336;2023-05-14T02:12:26;74.30;;;47.88;;
23519;SDS011;11936;50.820;4.336;2023-05-14T02:14:52;79.53;;;49.40;;
23519;SDS011;11936;50.820;4.336;2023-05-14T02:17:18;79.55;;;49.40;;
23519;SDS011;11936;50.820;4.336;2023-05-14T02:19:44;85.70;;;47.83;;
23519;SDS011;11936;50.820;4.336;2023-05-14T02:22:10;71.70;;;47.55;;
23519;SDS011;11936;50.820;4.336;2023-05-14T02:24:36;75.68;;;46.45;;
23519;SDS011;11936;50.820;4.336;2023-05-14T02:27:01;72.30;;;46.60;;
23519;SDS011;11936;50.820;4.336;2023-05-14T02:29:27;83.60;;;48.13;;
23519;SDS011;11936;50.820;4.336;2023-05-14T02:31:53;78.40;;;47.08;;
23519;SDS011;11936;50.820;4.336;2023-05-14T02:34:18;74.65;;;48.03;;
23519;SDS011;11936;50.820;4.336;2023-05-14T02:36:44;82.53;;;48.17;;
23519;SDS011;11936;50.820;4.336;2023-05-14T02:39:09;77.45;;;47.17;;
23519;SDS011;11936;50.820;4.336;2023-05-14T02:41:35;75.75;;;48.95;;
23519;SDS011;11936;50.820;4.336;2023-05-14T02:44:01;78.32;;;47.00;;
23519;SDS011;11936;50.820;4.336;2023-05-14T02:46:26;72.90;;;48.63;;
23519;SDS011;11936;50.820;4.336;2023-05-14T02:48:52;79.97;;;47.58;;
23519;SDS011;11936;50.820;4.336;2023-05-14T02:51:18;78.53;;;50.83;;
23519;SDS011;11936;50.820;4.336;2023-05-14T02:53:45;81.38;;;47.60;;
23519;SDS011;11936;50.820;4.336;2023-05-14T02:56:10;76.32;;;49.70;;
23519;SDS011;11936;50.820;4.336;2023-05-14T02:58:36;76.10;;;47.78;;
23519;SDS011;11936;50.820;4.336;2023-05-14T03:01:02;77.63;;;48.47;;
23519;SDS011;11936;50.820;4.336;2023-05-14T03:03:28;81.30;;;50.33;;
23519;SDS011;11936;50.820;4.336;2023-05-14T03:05:54;73.30;;;45.88;;
23519;SDS011;11936;50.820;4.336;2023-05-14T03:08:20;79.18;;;47.17;;
23519;SDS011;11936;50.820;4.336;2023-05-14T03:10:45;77.55;;;49.40;;
23519;SDS011;11936;50.820;4.336;2023-05-14T03:13:11;76.30;;;48.42;;
23519;SDS011;11936;50.820;4.336;2023-05-14T03:15:37;77.20;;;47.40;;
23519;SDS011;11936;50.820;4.336;2023-05-14T03:18:02;75.28;;;46.80;;
23519;SDS011;11936;50.820;4.336;2023-05-14T03:20:28;88.80;;;49.58;;
23519;SDS011;11936;50.820;4.336;2023-05-14T03:22:54;86.10;;;50.08;;
23519;SDS011;11936;50.820;4.336;2023-05-14T03:25:20;77.15;;;48.80;;
23519;SDS011;11936;50.820;4.336;2023-05-14T03:27:45;74.97;;;47.67;;
23519;SDS011;11936;50.820;4.336;2023-05-14T03:30:11;76.95;;;47.80;;
23519;SDS011;11936;50.820;4.336;2023-05-14T03:32:37;78.25;;;49.75;;
23519;SDS011;11936;50.820;4.336;2023-05-14T03:35:03;73.78;;;48.75;;
23519;SDS011;11936;50.820;4.336;2023-05-14T03:37:29;79.43;;;47.92;;
23519;SDS011;11936;50.820;4.336;2023-05-14T03:39:54;77.32;;;49.15;;
23519;SDS011;11936;50.820;4.336;2023-05-14T03:42:20;75.00;;;48.60;;
23519;SDS011;11936;50.820;4.336;2023-05-14T03:44:45;85.05;;;47.15;;
23519;SDS011;11936;50.820;4.336;2023-05-14T03:47:11;71.10;;;46.78;;
23519;SDS011;11936;50.820;4.336;2023-05-14T03:49:37;83.00;;;48.35;;
23519;SDS011;11936;50.820;4.336;2023-05-14T03:52:02;77.80;;;47.88;;
23519;SDS011;11936;50.820;4.336;2023-05-14T03:54:28;78.25;;;49.50;;
23519;SDS011;11936;50.820;4.336;2023-05-14T03:56:54;80.15;;;49.08;;
23519;SDS011;11936;50.820;4.336;2023-05-14T03:59:19;72.50;;;46.90;;
23519;SDS011;11936;50.820;4.336;2023-05-14T04:01:45;79.30;;;49.00;;
23519;SDS011;11936;50.820;4.336;2023-05-14T04:04:10;77.63;;;47.60;;
23519;SDS011;11936;50.820;4.336;2023-05-14T04:06:36;81.00;;;49.78;;
23519;SDS011;11936;50.820;4.336;2023-05-14T04:09:02;74.93;;;46.63;;
23519;SDS011;11936;50.820;4.336;2023-05-14T04:11:28;71.75;;;45.78;;
23519;SDS011;11936;50.820;4.336;2023-05-14T04:13:53;71.55;;;47.47;;
23519;SDS011;11936;50.820;4.336;2023-05-14T04:16:19;80.63;;;49.55;;
23519;SDS011;11936;50.820;4.336;2023-05-14T04:18:45;78.93;;;45.35;;
23519;SDS011;11936;50.820;4.336;2023-05-14T04:21:11;73.03;;;45.83;;
23519;SDS011;11936;50.820;4.336;2023-05-14T04:23:36;79.75;;;47.65;;
23519;SDS011;11936;50.820;4.336;2023-05-14T04:26:02;71.45;;;46.17;;
23519;SDS011;11936;50.820;4.336;2023-05-14T04:28:29;68.38;;;45.30;;
23519;SDS011;11936;50.820;4.336;2023-05-14T04:30:54;71.47;;;45.78;;
23519;SDS011;11936;50.820;4.336;2023-05-14T04:33:20;72.28;;;45.15;;
23519;SDS011;11936;50.820;4.336;2023-05-14T04:35:46;73.93;;;45.17;;
23519;SDS011;11936;50.820;4.336;2023-05-14T04:38:11;73.13;;;44.28;;
23519;SDS011;11936;50.820;4.336;2023-05-14T04:40:38;71.13;;;45.90;;
23519;SDS011;11936;50.820;4.336;2023-05-14T04:43:05;68.00;;;44.13;;
23519;SDS011;11936;50.820;4.336;2023-05-14T04:45:31;70.63;;;46.00;;
23519;SDS011;11936;50.820;4.336;2023-05-14T04:47:57;76.43;;;44.80;;
23519;SDS011;11936;50.820;4.336;2023-05-14T04:50:23;63.25;;;44.47;;
23519;SDS011;11936;50.820;4.336;2023-05-14T04:52:49;65.47;;;43.55;;
23519;SDS011;11936;50.820;4.336;2023-05-14T04:55:15;74.32;;;47.08;;
23519;SDS011;11936;50.820;4.336;2023-05-14T04:57:41;70.05;;;44.90;;
23519;SDS011;11936;50.820;4.336;2023-05-14T05:00:06;74.28;;;45.38;;
23519;SDS011;11936;50.820;4.336;2023-05-14T05:02:33;77.75;;;47.13;;
23519;SDS011;11936;50.820;4.336;2023-05-14T05:04:59;79.75;;;45.95;;
23519;SDS011;11936;50.820;4.336;2023-05-14T05:07:25;73.25;;;47.20;;
23519;SDS011;11936;50.820;4.336;2023-05-14T05:09:51;77.28;;;47.17;;
23519;SDS011;11936;50.820;4.336;2023-05-14T05:12:16;75.75;;;46.22;;
23519;SDS011;11936;50.820;4.336;2023-05-14T05:14:42;71.50;;;45.40;;
23519;SDS011;11936;50.820;4.336;2023-05-14T05:17:08;67.75;;;45.58;;
23519;SDS011;11936;50.820;4.336;2023-05-14T05:19:33;66.18;;;43.50;;
23519;SDS011;11936;50.820;4.336;2023-05-14T05:21:59;71.80;;;44.75;;
23519;SDS011;11936;50.820;4.336;2023-05-14T05:24:26;72.97;;;45.55;;
23519;SDS011;11936;50.820;4.336;2023-05-14T05:26:51;70.43;;;47.25;;
23519;SDS011;11936;50.820;4.336;2023-05-14T05:29:17;78.80;;;48.08;;
23519;SDS011;11936;50.820;4.336;2023-05-14T05:31:43;72.60;;;46.00;;
23519;SDS011;11936;50.820;4.336;2023-05-14T05:34:09;70.47;;;46.75;;
23519;SDS011;11936;50.820;4.336;2023-05-14T05:36:34;72.88;;;46.78;;
23519;SDS011;11936;50.820;4.336;2023-05-14T05:39:00;72.10;;;45.78;;
23519;SDS011;11936;50.820;4.336;2023-05-14T05:41:26;69.38;;;43.15;;
23519;SDS011;11936;50.820;4.336;2023-05-14T05:43:51;69.10;;;42.58;;
23519;SDS011;11936;50.820;4.336;2023-05-14T05:46:17;73.28;;;45.47;;
23519;SDS011;11936;50.820;4.336;2023-05-14T05:48:43;71.03;;;44.70;;
23519;SDS011;11936;50.820;4.336;2023-05-14T05:51:09;73.88;;;45.35;;
23519;SDS011;11936;50.820;4.336;2023-05-14T05:53:35;75.68;;;44.67;;
23519;SDS011;11936;50.820;4.336;2023-05-14T05:56:00;79.05;;;46.22;;
23519;SDS011;11936;50.820;4.336;2023-05-14T05:58:27;77.32;;;46.58;;
23519;SDS011;11936;50.820;4.336;2023-05-14T06:00:53;71.50;;;44.80;;
23519;SDS011;11936;50.820;4.336;2023-05-14T06:03:19;64.93;;;43.22;;
23519;SDS011;11936;50.820;4.336;2023-05-14T06:05:46;64.07;;;42.28;;
23519;SDS011;11936;50.820;4.336;2023-05-14T06:08:11;68.47;;;43.83;;
23519;SDS011;11936;50.820;4.336;2023-05-14T06:10:37;62.33;;;42.60;;
23519;SDS011;11936;50.820;4.336;2023-05-14T06:13:02;65.75;;;42.90;;
23519;SDS011;11936;50.820;4.336;2023-05-14T06:15:28;66.72;;;42.30;;
23519;SDS011;11936;50.820;4.336;2023-05-14T06:17:54;71.72;;;44.08;;
23519;SDS011;11936;50.820;4.336;2023-05-14T06:20:19;75.00;;;46.83;;
23519;SDS011;11936;50.820;4.336;2023-05-14T06:22:45;67.63;;;44.33;;
23519;SDS011;11936;50.820;4.336;2023-05-14T06:25:11;69.75;;;45.17;;
23519;SDS011;11936;50.820;4.336;2023-05-14T06:27:36;59.95;;;43.70;;
23519;SDS011;11936;50.820;4.336;2023-05-14T06:30:02;68.47;;;42.65;;
23519;SDS011;11936;50.820;4.336;2023-05-14T06:32:28;62.03;;;43.83;;
23519;SDS011;11936;50.820;4.336;2023-05-14T06:34:53;65.28;;;42.92;;
23519;SDS011;11936;50.820;4.336;2023-05-14T06:37:19;73.13;;;44.63;;
23519;SDS011;11936;50.820;4.336;2023-05-14T06:39:45;67.57;;;41.42;;
23519;SDS011;11936;50.820;4.336;2023-05-14T06:42:14;71.53;;;44.00;;
23519;SDS011;11936;50.820;4.336;2023-05-14T06:44:40;75.25;;;44.25;;
23519;SDS011;11936;50.820;4.336;2023-05-14T06:47:06;60.88;;;40.53;;
23519;SDS011;11936;50.820;4.336;2023-05-14T06:49:35;65.18;;;42.58;;
23519;SDS011;11936;50.820;4.336;2023-05-14T06:52:01;66.97;;;42.38;;
23519;SDS011;11936;50.820;4.336;2023-05-14T06:54:27;67.57;;;41.03;;
23519;SDS011;11936;50.820;4.336;2023-05-14T06:56:53;69.47;;;42.55;;
23519;SDS011;11936;50.820;4.336;2023-05-14T06:59:19;71.70;;;44.15;;
23519;SDS011;11936;50.820;4.336;2023-05-14T07:01:44;71.80;;;41.17;;
23519;SDS011;11936;50.820;4.336;2023-05-14T07:04:10;62.67;;;40.78;;
23519;SDS011;11936;50.820;4.336;2023-05-14T07:06:38;64.93;;;39.67;;
23519;SDS011;11936;50.820;4.336;2023-05-14T07:09:04;64.80;;;41.50;;
23519;SDS011;11936;50.820;4.336;2023-05-14T07:11:31;66.00;;;40.50;;
23519;SDS011;11936;50.820;4.336;2023-05-14T07:13:57;66.65;;;37.97;;
23519;SDS011;11936;50.820;4.336;2023-05-14T07:16:23;63.20;;;39.40;;
23519;SDS011;11936;50.820;4.336;2023-05-14T07:18:49;63.63;;;40.05;;
23519;SDS011;11936;50.820;4.336;2023-05-14T07:21:15;57.92;;;38.58;;
23519;SDS011;11936;50.820;4.336;2023-05-14T07:23:40;64.15;;;38.20;;
23519;SDS011;11936;50.820;4.336;2023-05-14T07:26:06;66.00;;;39.60;;
23519;SDS011;11936;50.820;4.336;2023-05-14T07:28:32;61.63;;;38.58;;
23519;SDS011;11936;50.820;4.336;2023-05-14T07:30:58;60.97;;;39.17;;
23519;SDS011;11936;50.820;4.336;2023-05-14T07:33:24;61.17;;;38.45;;
23519;SDS011;11936;50.820;4.336;2023-05-14T07:35:50;60.00;;;38.45;;
23519;SDS011;11936;50.820;4.336;2023-05-14T07:38:16;60.90;;;38.20;;
23519;SDS011;11936;50.820;4.336;2023-05-14T07:40:42;59.75;;;37.42;;
23519;SDS011;11936;50.820;4.336;2023-05-14T07:43:08;53.42;;;37.63;;
23519;SDS011;11936;50.820;4.336;2023-05-14T07:45:35;59.20;;;36.90;;
23519;SDS011;11936;50.820;4.336;2023-05-14T07:48:01;58.40;;;37.78;;
23519;SDS011;11936;50.820;4.336;2023-05-14T07:50:27;59.67;;;37.38;;
23519;SDS011;11936;50.820;4.336;2023-05-14T07:52:53;57.60;;;38.10;;
23519;SDS011;11936;50.820;4.336;2023-05-14T07:55:18;59.95;;;38.50;;
23519;SDS011;11936;50.820;4.336;2023-05-14T07:57:44;54.88;;;37.17;;
23519;SDS011;11936;50.820;4.336;2023-05-14T08:00:11;52.90;;;36.50;;
23519;SDS011;11936;50.820;4.336;2023-05-14T08:02:37;56.55;;;37.45;;
23519;SDS011;11936;50.820;4.336;2023-05-14T08:05:03;55.00;;;39.03;;
23519;SDS011;11936;50.820;4.336;2023-05-14T08:07:28;56.95;;;35.80;;
23519;SDS011;11936;50.820;4.336;2023-05-14T08:09:54;60.05;;;37.72;;
23519;SDS011;11936;50.820;4.336;2023-05-14T08:12:20;54.08;;;37.65;;
23519;SDS011;11936;50.820;4.336;2023-05-14T08:14:46;51.92;;;36.40;;
23519;SDS011;11936;50.820;4.336;2023-05-14T08:17:12;60.75;;;36.50;;
23519;SDS011;11936;50.820;4.336;2023-05-14T08:19:37;65.78;;;36.28;;
23519;SDS011;11936;50.820;4.336;2023-05-14T08:22:03;52.40;;;36.65;;
23519;SDS011;11936;50.820;4.336;2023-05-14T08:24:29;56.90;;;36.38;;
23519;SDS011;11936;50.820;4.336;2023-05-14T08:26:55;46.58;;;33.17;;
23519;SDS011;11936;50.820;4.336;2023-05-14T08:29:21;51.10;;;34.45;;
23519;SDS011;11936;50.820;4.336;2023-05-14T08:31:48;44.88;;;33.03;;
23519;SDS011;11936;50.820;4.336;2023-05-14T08:34:15;56.17;;;33.70;;
23519;SDS011;11936;50.820;4.336;2023-05-14T08:36:40;43.45;;;32.80;;
23519;SDS011;11936;50.820;4.336;2023-05-14T08:39:06;40.65;;;30.02;;
23519;SDS011;11936;50.820;4.336;2023-05-14T08:41:32;42.83;;;30.38;;
23519;SDS011;11936;50.820;4.336;2023-05-14T08:44:32;35.78;;;29.02;;
23519;SDS011;11936;50.820;4.336;2023-05-14T08:46:56;46.30;;;30.13;;
23519;SDS011;11936;50.820;4.336;2023-05-14T08:51:54;39.90;;;28.30;;
23519;SDS011;11936;50.820;4.336;2023-05-14T08:54:20;49.10;;;29.67;;
23519;SDS011;11936;50.820;4.336;2023-05-14T08:56:48;47.15;;;29.80;;
23519;SDS011;11936;50.820;4.336;2023-05-14T08:59:16;37.53;;;29.65;;
23519;SDS011;11936;50.820;4.336;2023-05-14T09:01:51;39.72;;;29.65;;
23519;SDS011;11936;50.820;4.336;2023-05-14T09:04:21;34.17;;;27.10;;
23519;SDS011;11936;50.820;4.336;2023-05-14T09:06:49;43.95;;;29.48;;
23519;SDS011;11936;50.820;4.336;2023-05-14T09:09:16;40.70;;;29.67;;
23519;SDS011;11936;50.820;4.336;2023-05-14T09:11:45;38.10;;;28.65;;
23519;SDS011;11936;50.820;4.336;2023-05-14T09:14:11;48.10;;;29.10;;
23519;SDS011;11936;50.820;4.336;2023-05-14T09:16:37;38.83;;;30.23;;
23519;SDS011;11936;50.820;4.336;2023-05-14T09:19:06;38.75;;;30.13;;
23519;SDS011;11936;50.820;4.336;2023-05-14T09:21:32;36.53;;;28.83;;
23519;SDS011;11936;50.820;4.336;2023-05-14T09:23:59;37.25;;;27.40;;
23519;SDS011;11936;50.820;4.336;2023-05-14T09:26:25;43.33;;;28.52;;
23519;SDS011;11936;50.820;4.336;2023-05-14T09:28:54;36.58;;;26.67;;
23519;SDS011;11936;50.820;4.336;2023-05-14T09:31:21;35.42;;;25.45;;
23519;SDS011;11936;50.820;4.336;2023-05-14T09:33:50;35.30;;;26.98;;
23519;SDS011;11936;50.820;4.336;2023-05-14T09:36:17;34.35;;;25.48;;
23519;SDS011;11936;50.820;4.336;2023-05-14T09:38:43;37.00;;;26.92;;
23519;SDS011;11936;50.820;4.336;2023-05-14T09:41:09;33.85;;;26.70;;
23519;SDS011;11936;50.820;4.336;2023-05-14T09:43:35;37.63;;;26.27;;
23519;SDS011;11936;50.820;4.336;2023-05-14T09:46:00;33.28;;;25.95;;
23519;SDS011;11936;50.820;4.336;2023-05-14T09:48:26;40.72;;;27.73;;
23519;SDS011;11936;50.820;4.336;2023-05-14T09:50:52;35.28;;;26.80;;
23519;SDS011;11936;50.820;4.336;2023-05-14T09:53:17;37.40;;;26.88;;
23519;SDS011;11936;50.820;4.336;2023-05-14T09:55:44;31.10;;;25.33;;
23519;SDS011;11936;50.820;4.336;2023-05-14T09:58:10;33.10;;;26.70;;
23519;SDS011;11936;50.820;4.336;2023-05-14T10:00:38;27.90;;;24.30;;
23519;SDS011;11936;50.820;4.336;2023-05-14T10:03:05;34.95;;;24.83;;
23519;SDS011;11936;50.820;4.336;2023-05-14T10:05:35;33.13;;;24.93;;
23519;SDS011;11936;50.820;4.336;2023-05-14T10:08:08;34.45;;;25.70;;
23519;SDS011;11936;50.820;4.336;2023-05-14T10:10:38;30.50;;;25.95;;
23519;SDS011;11936;50.820;4.336;2023-05-14T10:13:05;34.38;;;24.90;;
23519;SDS011;11936;50.820;4.336;2023-05-14T10:15:36;31.58;;;26.65;;
23519;SDS011;11936;50.820;4.336;2023-05-14T10:18:08;33.38;;;25.02;;
23519;SDS011;11936;50.820;4.336;2023-05-14T10:20:37;28.75;;;23.52;;
23519;SDS011;11936;50.820;4.336;2023-05-14T10:23:05;32.33;;;23.60;;
23519;SDS011;11936;50.820;4.336;2023-05-14T10:25:34;33.10;;;24.25;;
23519;SDS011;11936;50.820;4.336;2023-05-14T10:28:01;35.22;;;24.85;;
23519;SDS011;11936;50.820;4.336;2023-05-14T10:30:27;29.92;;;23.83;;
23519;SDS011;11936;50.820;4.336;2023-05-14T10:33:08;28.38;;;24.10;;
23519;SDS011;11936;50.820;4.336;2023-05-14T10:38:38;29.88;;;24.05;;
23519;SDS011;11936;50.820;4.336;2023-05-14T10:41:05;30.70;;;24.50;;
23519;SDS011;11936;50.820;4.336;2023-05-14T10:43:37;36.45;;;25.00;;
23519;SDS011;11936;50.820;4.336;2023-05-14T10:46:06;46.47;;;32.90;;
23519;SDS011;11936;50.820;4.336;2023-05-14T10:48:33;36.53;;;26.27;;
23519;SDS011;11936;50.820;4.336;2023-05-14T10:51:01;37.55;;;25.92;;
23519;SDS011;11936;50.820;4.336;2023-05-14T10:53:34;29.77;;;23.63;;
23519;SDS011;11936;50.820;4.336;2023-05-14T10:56:11;29.73;;;24.00;;
23519;SDS011;11936;50.820;4.336;2023-05-14T10:58:41;28.52;;;23.95;;
23519;SDS011;11936;50.820;4.336;2023-05-14T11:01:09;24.95;;;20.90;;
23519;SDS011;11936;50.820;4.336;2023-05-14T11:03:42;30.77;;;22.15;;
23519;SDS011;11936;50.820;4.336;2023-05-14T11:06:10;29.48;;;21.80;;
23519;SDS011;11936;50.820;4.336;2023-05-14T11:08:37;33.17;;;22.65;;
23519;SDS011;11936;50.820;4.336;2023-05-14T11:11:04;30.48;;;24.38;;
23519;SDS011;11936;50.820;4.336;2023-05-14T11:13:30;29.30;;;22.90;;
23519;SDS011;11936;50.820;4.336;2023-05-14T11:15:56;31.90;;;24.38;;
23519;SDS011;11936;50.820;4.336;2023-05-14T11:18:29;33.10;;;22.83;;
23519;SDS011;11936;50.820;4.336;2023-05-14T11:21:00;32.15;;;23.02;;
23519;SDS011;11936;50.820;4.336;2023-05-14T11:23:27;26.52;;;20.83;;
23519;SDS011;11936;50.820;4.336;2023-05-14T11:25:53;31.85;;;24.15;;
23519;SDS011;11936;50.820;4.336;2023-05-14T11:28:22;33.17;;;22.73;;
23519;SDS011;11936;50.820;4.336;2023-05-14T11:30:50;29.00;;;21.40;;
23519;SDS011;11936;50.820;4.336;2023-05-14T11:33:17;26.15;;;19.63;;
23519;SDS011;11936;50.820;4.336;2023-05-14T11:35:43;26.45;;;20.80;;
23519;SDS011;11936;50.820;4.336;2023-05-14T11:38:19;24.30;;;20.45;;
23519;SDS011;11936;50.820;4.336;2023-05-14T11:40:52;29.33;;;20.70;;
23519;SDS011;11936;50.820;4.336;2023-05-14T11:43:19;28.38;;;21.42;;
23519;SDS011;11936;50.820;4.336;2023-05-14T11:45:51;30.45;;;21.17;;
23519;SDS011;11936;50.820;4.336;2023-05-14T11:48:18;27.27;;;19.52;;
23519;SDS011;11936;50.820;4.336;2023-05-14T11:50:47;26.75;;;20.15;;
23519;SDS011;11936;50.820;4.336;2023-05-14T11:55:51;33.78;;;22.83;;
23519;SDS011;11936;50.820;4.336;2023-05-14T11:58:21;34.65;;;21.77;;
23519;SDS011;11936;50.820;4.336;2023-05-14T12:00:51;29.08;;;21.15;;
23519;SDS011;11936;50.820;4.336;2023-05-14T12:03:19;26.92;;;20.80;;
23519;SDS011;11936;50.820;4.336;2023-05-14T12:05:56;27.90;;;19.15;;
23519;SDS011;11936;50.820;4.336;2023-05-14T12:08:26;23.38;;;19.88;;
23519;SDS011;11936;50.820;4.336;2023-05-14T12:10:53;27.02;;;19.00;;
23519;SDS011;11936;50.820;4.336;2023-05-14T12:13:19;24.98;;;20.10;;
23519;SDS011;11936;50.820;4.336;2023-05-14T12:15:55;28.48;;;17.98;;
23519;SDS011;11936;50.820;4.336;2023-05-14T12:18:30;24.83;;;20.20;;
23519;SDS011;11936;50.820;4.336;2023-05-14T12:21:00;33.10;;;19.88;;
23519;SDS011;11936;50.820;4.336;2023-05-14T12:23:31;27.50;;;20.35;;
23519;SDS011;11936;50.820;4.336;2023-05-14T12:26:00;27.63;;;18.58;;
23519;SDS011;11936;50.820;4.336;2023-05-14T12:28:28;29.33;;;20.60;;
23519;SDS011;11936;50.820;4.336;2023-05-14T12:30:56;24.10;;;19.15;;
23519;SDS011;11936;50.820;4.336;2023-05-14T12:33:23;25.00;;;19.92;;
23519;SDS011;11936;50.820;4.336;2023-05-14T12:35:50;25.00;;;17.27;;
23519;SDS011;11936;50.820;4.336;2023-05-14T12:38:17;26.45;;;19.48;;
23519;SDS011;11936;50.820;4.336;2023-05-14T12:40:43;22.92;;;18.35;;
23519;SDS011;11936;50.820;4.336;2023-05-14T12:43:09;24.30;;;19.33;;
23519;SDS011;11936;50.820;4.336;2023-05-14T12:45:35;23.05;;;18.88;;
23519;SDS011;11936;50.820;4.336;2023-05-14T12:48:01;23.67;;;19.05;;
23519;SDS011;11936;50.820;4.336;2023-05-14T12:50:26;27.20;;;16.95;;
23519;SDS011;11936;50.820;4.336;2023-05-14T12:52:52;25.70;;;18.92;;
23519;SDS011;11936;50.820;4.336;2023-05-14T12:55:18;25.75;;;19.10;;
23519;SDS011;11936;50.820;4.336;2023-05-14T12:57:44;24.88;;;19.05;;
23519;SDS011;11936;50.820;4.336;2023-05-14T13:00:09;30.70;;;18.75;;
23519;SDS011;11936;50.820;4.336;2023-05-14T13:02:36;21.35;;;16.23;;
23519;SDS011;11936;50.820;4.336;2023-05-14T13:05:02;25.88;;;19.88;;
23519;SDS011;11936;50.820;4.336;2023-05-14T13:07:28;25.60;;;18.80;;
23519;SDS011;11936;50.820;4.336;2023-05-14T13:09:54;23.90;;;19.13;;
23519;SDS011;11936;50.820;4.336;2023-05-14T13:12:22;21.33;;;18.00;;
23519;SDS011;11936;50.820;4.336;2023-05-14T13:14:48;27.48;;;18.02;;
23519;SDS011;11936;50.820;4.336;2023-05-14T13:17:14;20.20;;;15.95;;
23519;SDS011;11936;50.820;4.336;2023-05-14T13:19:40;19.98;;;16.90;;
23519;SDS011;11936;50.820;4.336;2023-05-14T13:22:05;25.13;;;17.63;;
23519;SDS011;11936;50.820;4.336;2023-05-14T13:24:31;24.23;;;18.45;;
23519;SDS011;11936;50.820;4.336;2023-05-14T13:26:56;20.73;;;16.55;;
23519;SDS011;11936;50.820;4.336;2023-05-14T13:29:22;25.42;;;18.48;;
23519;SDS011;11936;50.820;4.336;2023-05-14T13:31:48;24.45;;;19.23;;
23519;SDS011;11936;50.820;4.336;2023-05-14T13:34:13;21.95;;;16.30;;
23519;SDS011;11936;50.820;4.336;2023-05-14T13:36:40;23.27;;;16.95;;
23519;SDS011;11936;50.820;4.336;2023-05-14T13:39:07;20.50;;;15.73;;
23519;SDS011;11936;50.820;4.336;2023-05-14T13:41:34;26.92;;;17.85;;
23519;SDS011;11936;50.820;4.336;2023-05-14T13:44:01;17.52;;;15.43;;
23519;SDS011;11936;50.820;4.336;2023-05-14T13:46:27;21.60;;;17.08;;
23519;SDS011;11936;50.820;4.336;2023-05-14T13:48:53;21.30;;;15.32;;
23519;SDS011;11936;50.820;4.336;2023-05-14T13:51:19;20.08;;;15.57;;
23519;SDS011;11936;50.820;4.336;2023-05-14T13:53:44;24.15;;;16.08;;
23519;SDS011;11936;50.820;4.336;2023-05-14T13:56:10;20.20;;;13.75;;
23519;SDS011;11936;50.820;4.336;2023-05-14T13:58:36;18.95;;;13.75;;
23519;SDS011;11936;50.820;4.336;2023-05-14T14:01:01;18.65;;;14.93;;
23519;SDS011;11936;50.820;4.336;2023-05-14T14:03:27;17.08;;;14.07;;
23519;SDS011;11936;50.820;4.336;2023-05-14T14:05:52;17.75;;;14.00;;
23519;SDS011;11936;50.820;4.336;2023-05-14T14:08:18;18.38;;;13.32;;
23519;SDS011;11936;50.820;4.336;2023-05-14T14:10:44;19.58;;;15.98;;
23519;SDS011;11936;50.820;4.336;2023-05-14T14:13:09;19.00;;;14.07;;
23519;SDS011;11936;50.820;4.336;2023-05-14T14:15:35;20.95;;;14.77;;
23519;SDS011;11936;50.820;4.336;2023-05-14T14:18:01;19.00;;;14.25;;
23519;SDS011;11936;50.820;4.336;2023-05-14T14:20:27;19.95;;;12.40;;
23519;SDS011;11936;50.820;4.336;2023-05-14T14:22:53;22.30;;;12.18;;
23519;SDS011;11936;50.820;4.336;2023-05-14T14:25:18;15.25;;;11.70;;
23519;SDS011;11936;50.820;4.336;2023-05-14T14:27:44;18.30;;;11.60;;
23519;SDS011;11936;50.820;4.336;2023-05-14T14:30:10;15.80;;;13.88;;
23519;SDS011;11936;50.820;4.336;2023-05-14T14:32:45;17.55;;;12.65;;